Check out our new PWSWeather beta!
PWSweather.com
Personal Weather Stations
Station Observations
ILOMBARD30
LodiIT 26900

LodiIT 26900

Lat: 45.2993, Lon: 9.5207

Elevation: 255

Station Type: Davis Vantege Pro2 Plus 24h

http://www.meteo-iw2gob.it

High Low Average
Temperature 89.3°F31.8°C 71.7°F22.1°C 78.7°F25.9°C
Dew Point 68.2°F20.1°C 62.3°F16.8°C 64.8°F18.2°C
Winds 8.1 mph 13.0 kmh Calm Calm 3.0 mph SSE4.8 kmh SSE
Wind Gusts 13.8 mph22.2 kmh -- 4.0 mph6.4 kmh
Humidity 78% 44% 64%
Pressure 30.02 in1016.6 mb 29.87 in1011.5 mb -
Precipitation 0.00 in0.0 mm - -
Hour Temp Dew Point Humidity Winds Wind Gusts Pressure Precip Precip Rate Daily Precip Total
12:00 AM 75.3°F24.1°C 67.2°F19.6°C 76% 1.2 mph ENE1.9 kmh ENE 2.3 mph3.7 kmh 30.01 in1016.3 mb - 0.00 in0.0 mm 0.00 in0.0 mm
12:05 AM 75.3°F24.1°C 67.2°F19.6°C 76% 1.2 mph ENE1.9 kmh ENE 3.5 mph5.6 kmh 30.01 in1016.3 mb - 0.00 in0.0 mm 0.00 in0.0 mm
12:10 AM 75.2°F24.0°C 67.1°F19.5°C 76% Calm Calm 3.5 mph5.6 kmh 30.02 in1016.6 mb - 0.00 in0.0 mm 0.00 in0.0 mm
12:15 AM 75.1°F23.9°C 67.0°F19.4°C 76% 4.6 mph N7.4 kmh N 5.8 mph9.3 kmh 30.02 in1016.6 mb - 0.00 in0.0 mm 0.00 in0.0 mm
12:20 AM 74.9°F23.8°C 66.8°F19.3°C 76% 3.5 mph NNE5.6 kmh NNE 3.5 mph5.6 kmh 30.01 in1016.3 mb - 0.00 in0.0 mm 0.00 in0.0 mm
12:25 AM 74.9°F23.8°C 66.8°F19.3°C 76% 4.6 mph N7.4 kmh N 5.8 mph9.3 kmh 30.02 in1016.6 mb - 0.00 in0.0 mm 0.00 in0.0 mm
12:30 AM 74.9°F23.8°C 66.4°F19.1°C 75% 3.5 mph N5.6 kmh N 5.8 mph9.3 kmh 30.02 in1016.6 mb - 0.00 in0.0 mm 0.00 in0.0 mm
12:35 AM 74.8°F23.8°C 66.0°F18.9°C 74% 4.6 mph N7.4 kmh N 5.8 mph9.3 kmh 30.02 in1016.6 mb - 0.00 in0.0 mm 0.00 in0.0 mm
12:40 AM 74.8°F23.8°C 65.6°F18.7°C 73% 3.5 mph N5.6 kmh N 4.6 mph7.4 kmh 30.02 in1016.6 mb - 0.00 in0.0 mm 0.00 in0.0 mm
12:45 AM 74.9°F23.8°C 65.7°F18.7°C 73% 4.6 mph N7.4 kmh N 6.9 mph11.1 kmh 30.02 in1016.6 mb - 0.00 in0.0 mm 0.00 in0.0 mm
12:50 AM 74.9°F23.8°C 65.3°F18.5°C 72% 4.6 mph N7.4 kmh N 4.6 mph7.4 kmh 30.02 in1016.6 mb - 0.00 in0.0 mm 0.00 in0.0 mm
12:55 AM 74.9°F23.8°C 64.9°F18.3°C 71% 3.5 mph N5.6 kmh N 5.8 mph9.3 kmh 30.01 in1016.3 mb - 0.00 in0.0 mm 0.00 in0.0 mm
01:00 AM 74.9°F23.8°C 64.9°F18.3°C 71% 4.6 mph N7.4 kmh N 4.6 mph7.4 kmh 30.01 in1016.3 mb - 0.00 in0.0 mm 0.00 in0.0 mm
01:05 AM 74.9°F23.8°C 64.5°F18.1°C 70% 2.3 mph N3.7 kmh N 4.6 mph7.4 kmh 30.01 in1016.3 mb - 0.00 in0.0 mm 0.00 in0.0 mm
01:10 AM 74.9°F23.8°C 64.4°F18.0°C 70% 3.5 mph N5.6 kmh N 3.5 mph5.6 kmh 30.01 in1016.3 mb - 0.00 in0.0 mm 0.00 in0.0 mm
01:15 AM 74.8°F23.8°C 64.4°F18.0°C 70% 3.5 mph NNE5.6 kmh NNE 4.6 mph7.4 kmh 30.01 in1016.3 mb - 0.00 in0.0 mm 0.00 in0.0 mm
01:20 AM 74.8°F23.8°C 64.4°F18.0°C 70% 3.5 mph NNE5.6 kmh NNE 5.8 mph9.3 kmh 30.01 in1016.3 mb - 0.00 in0.0 mm 0.00 in0.0 mm
01:25 AM 74.8°F23.8°C 63.9°F17.7°C 69% 3.5 mph NNE5.6 kmh NNE 3.5 mph5.6 kmh 30.00 in1015.9 mb - 0.00 in0.0 mm 0.00 in0.0 mm
01:30 AM 74.8°F23.8°C 63.9°F17.7°C 69% 3.5 mph N5.6 kmh N 4.6 mph7.4 kmh 30.00 in1015.9 mb - 0.00 in0.0 mm 0.00 in0.0 mm
01:35 AM 74.8°F23.8°C 63.9°F17.7°C 69% 3.5 mph N5.6 kmh N 4.6 mph7.4 kmh 30.00 in1015.9 mb - 0.00 in0.0 mm 0.00 in0.0 mm
01:40 AM 74.7°F23.7°C 63.9°F17.7°C 69% 3.5 mph N5.6 kmh N 4.6 mph7.4 kmh 30.00 in1015.9 mb - 0.00 in0.0 mm 0.00 in0.0 mm
01:45 AM 74.6°F23.7°C 64.2°F17.9°C 70% 3.5 mph 5.6 kmh 3.5 mph5.6 kmh 30.00 in1015.9 mb - 0.00 in0.0 mm 0.00 in0.0 mm
01:50 AM 74.5°F23.6°C 64.1°F17.8°C 70% 3.5 mph N5.6 kmh N 3.5 mph5.6 kmh 30.00 in1015.9 mb - 0.00 in0.0 mm 0.00 in0.0 mm
01:55 AM 74.4°F23.6°C 64.0°F17.8°C 70% 3.5 mph NNE5.6 kmh NNE 3.5 mph5.6 kmh 30.00 in1015.9 mb - 0.00 in0.0 mm 0.00 in0.0 mm
02:00 AM 74.4°F23.6°C 64.0°F17.8°C 70% 3.5 mph N5.6 kmh N 4.6 mph7.4 kmh 30.00 in1015.9 mb - 0.00 in0.0 mm 0.00 in0.0 mm
02:05 AM 74.3°F23.5°C 63.9°F17.7°C 70% 3.5 mph N5.6 kmh N 4.6 mph7.4 kmh 30.00 in1015.9 mb - 0.00 in0.0 mm 0.00 in0.0 mm
02:10 AM 74.2°F23.4°C 63.8°F17.7°C 70% 3.5 mph N5.6 kmh N 3.5 mph5.6 kmh 30.00 in1015.9 mb - 0.00 in0.0 mm 0.00 in0.0 mm
02:15 AM 74.2°F23.4°C 64.2°F17.9°C 71% 2.3 mph N3.7 kmh N 3.5 mph5.6 kmh 30.00 in1015.9 mb - 0.00 in0.0 mm 0.00 in0.0 mm
02:20 AM 74.1°F23.4°C 64.1°F17.8°C 71% 2.3 mph N3.7 kmh N 3.5 mph5.6 kmh 30.00 in1015.9 mb - 0.00 in0.0 mm 0.00 in0.0 mm
02:25 AM 74.1°F23.4°C 64.1°F17.8°C 71% 2.3 mph N3.7 kmh N 3.5 mph5.6 kmh 30.00 in1015.9 mb - 0.00 in0.0 mm 0.00 in0.0 mm
02:30 AM 74.0°F23.3°C 64.0°F17.8°C 71% 2.3 mph N3.7 kmh N 3.5 mph5.6 kmh 30.00 in1015.9 mb - 0.00 in0.0 mm 0.00 in0.0 mm
02:35 AM 74.0°F23.3°C 64.0°F17.8°C 71% 2.3 mph N3.7 kmh N 3.5 mph5.6 kmh 30.00 in1015.9 mb - 0.00 in0.0 mm 0.00 in0.0 mm
02:40 AM 73.9°F23.3°C 63.9°F17.7°C 71% 2.3 mph N3.7 kmh N 3.5 mph5.6 kmh 30.00 in1015.9 mb - 0.00 in0.0 mm 0.00 in0.0 mm
02:45 AM 73.9°F23.3°C 63.9°F17.7°C 71% 2.3 mph N3.7 kmh N 3.5 mph5.6 kmh 29.99 in1015.6 mb - 0.00 in0.0 mm 0.00 in0.0 mm
02:50 AM 73.8°F23.2°C 63.8°F17.7°C 71% 2.3 mph N3.7 kmh N 3.5 mph5.6 kmh 29.99 in1015.6 mb - 0.00 in0.0 mm 0.00 in0.0 mm
02:55 AM 73.7°F23.2°C 63.7°F17.6°C 71% 2.3 mph N3.7 kmh N 3.5 mph5.6 kmh 29.99 in1015.6 mb - 0.00 in0.0 mm 0.00 in0.0 mm
03:00 AM 73.7°F23.2°C 63.7°F17.6°C 71% 2.3 mph N3.7 kmh N 3.5 mph5.6 kmh 29.99 in1015.6 mb - 0.00 in0.0 mm 0.00 in0.0 mm
03:05 AM 73.7°F23.2°C 63.7°F17.6°C 71% 2.3 mph N3.7 kmh N 3.5 mph5.6 kmh 29.99 in1015.6 mb - 0.00 in0.0 mm 0.00 in0.0 mm
03:10 AM 73.6°F23.1°C 64.0°F17.8°C 72% 2.3 mph N3.7 kmh N 3.5 mph5.6 kmh 29.99 in1015.6 mb - 0.00 in0.0 mm 0.00 in0.0 mm
03:15 AM 73.6°F23.1°C 64.0°F17.8°C 72% 2.3 mph N3.7 kmh N 3.5 mph5.6 kmh 29.99 in1015.6 mb - 0.00 in0.0 mm 0.00 in0.0 mm
03:20 AM 73.5°F23.1°C 63.9°F17.7°C 72% 3.5 mph N5.6 kmh N 3.5 mph5.6 kmh 29.99 in1015.6 mb - 0.00 in0.0 mm 0.00 in0.0 mm
03:25 AM 73.4°F23.0°C 63.8°F17.7°C 72% 3.5 mph N5.6 kmh N 4.6 mph7.4 kmh 29.98 in1015.2 mb - 0.00 in0.0 mm 0.00 in0.0 mm
03:30 AM 73.4°F23.0°C 64.2°F17.9°C 73% 2.3 mph N3.7 kmh N 3.5 mph5.6 kmh 29.98 in1015.2 mb - 0.00 in0.0 mm 0.00 in0.0 mm
03:35 AM 73.3°F22.9°C 64.1°F17.8°C 73% 2.3 mph N3.7 kmh N 3.5 mph5.6 kmh 29.98 in1015.2 mb - 0.00 in0.0 mm 0.00 in0.0 mm
03:40 AM 73.2°F22.9°C 64.0°F17.8°C 73% 2.3 mph N3.7 kmh N 3.5 mph5.6 kmh 29.98 in1015.2 mb - 0.00 in0.0 mm 0.00 in0.0 mm
03:45 AM 73.2°F22.9°C 64.0°F17.8°C 73% 2.3 mph N3.7 kmh N 2.3 mph3.7 kmh 29.98 in1015.2 mb - 0.00 in0.0 mm 0.00 in0.0 mm
03:50 AM 73.1°F22.8°C 63.9°F17.7°C 73% 1.2 mph N1.9 kmh N 2.3 mph3.7 kmh 29.98 in1015.2 mb - 0.00 in0.0 mm 0.00 in0.0 mm
03:55 AM 73.1°F22.8°C 63.9°F17.7°C 73% 2.3 mph N3.7 kmh N 3.5 mph5.6 kmh 29.98 in1015.2 mb - 0.00 in0.0 mm 0.00 in0.0 mm
04:00 AM 73.0°F22.8°C 64.2°F17.9°C 74% 2.3 mph N3.7 kmh N 3.5 mph5.6 kmh 29.98 in1015.2 mb - 0.00 in0.0 mm 0.00 in0.0 mm
04:05 AM 72.9°F22.7°C 64.1°F17.8°C 74% 2.3 mph N3.7 kmh N 3.5 mph5.6 kmh 29.98 in1015.2 mb - 0.00 in0.0 mm 0.00 in0.0 mm
04:10 AM 72.8°F22.7°C 64.1°F17.8°C 74% 2.3 mph N3.7 kmh N 3.5 mph5.6 kmh 29.98 in1015.2 mb - 0.00 in0.0 mm 0.00 in0.0 mm
04:15 AM 72.8°F22.7°C 64.4°F18.0°C 75% 2.3 mph N3.7 kmh N 3.5 mph5.6 kmh 29.98 in1015.2 mb - 0.00 in0.0 mm 0.00 in0.0 mm
04:20 AM 72.7°F22.6°C 64.3°F17.9°C 75% 2.3 mph NNW3.7 kmh NNW 3.5 mph5.6 kmh 29.98 in1015.2 mb - 0.00 in0.0 mm 0.00 in0.0 mm
04:25 AM 72.6°F22.6°C 64.6°F18.1°C 76% 2.3 mph NNW3.7 kmh NNW 3.5 mph5.6 kmh 29.98 in1015.2 mb - 0.00 in0.0 mm 0.00 in0.0 mm
04:30 AM 72.5°F22.5°C 64.5°F18.1°C 76% 3.5 mph NNW5.6 kmh NNW 3.5 mph5.6 kmh 29.98 in1015.2 mb - 0.00 in0.0 mm 0.00 in0.0 mm
04:35 AM 72.4°F22.4°C 64.4°F18.0°C 76% 3.5 mph N5.6 kmh N 4.6 mph7.4 kmh 29.98 in1015.2 mb - 0.00 in0.0 mm 0.00 in0.0 mm
04:40 AM 72.4°F22.4°C 64.4°F18.0°C 76% 1.2 mph N1.9 kmh N 2.3 mph3.7 kmh 29.98 in1015.2 mb - 0.00 in0.0 mm 0.00 in0.0 mm
04:45 AM 72.4°F22.4°C 64.4°F18.0°C 76% 1.2 mph E1.9 kmh E 3.5 mph5.6 kmh 29.98 in1015.2 mb - 0.00 in0.0 mm 0.00 in0.0 mm
04:50 AM 72.4°F22.4°C 64.4°F18.0°C 76% 2.3 mph E3.7 kmh E 2.3 mph3.7 kmh 29.98 in1015.2 mb - 0.00 in0.0 mm 0.00 in0.0 mm
04:55 AM 72.4°F22.4°C 64.4°F18.0°C 76% 1.2 mph E1.9 kmh E 2.3 mph3.7 kmh 29.98 in1015.2 mb - 0.00 in0.0 mm 0.00 in0.0 mm
05:00 AM 72.4°F22.4°C 64.4°F18.0°C 76% Calm Calm 1.2 mph1.9 kmh 29.98 in1015.2 mb - 0.00 in0.0 mm 0.00 in0.0 mm
05:05 AM 72.4°F22.4°C 64.4°F18.0°C 76% 1.2 mph E1.9 kmh E 2.3 mph3.7 kmh 29.98 in1015.2 mb - 0.00 in0.0 mm 0.00 in0.0 mm
05:10 AM 72.4°F22.4°C 64.4°F18.0°C 76% Calm Calm 1.2 mph1.9 kmh 29.98 in1015.2 mb - 0.00 in0.0 mm 0.00 in0.0 mm
05:15 AM 72.4°F22.4°C 64.4°F18.0°C 76% Calm Calm -- 29.98 in1015.2 mb - 0.00 in0.0 mm 0.00 in0.0 mm
05:20 AM 72.4°F22.4°C 64.4°F18.0°C 76% Calm Calm -- 29.98 in1015.2 mb - 0.00 in0.0 mm 0.00 in0.0 mm
05:25 AM 72.4°F22.4°C 64.4°F18.0°C 76% Calm Calm -- 29.98 in1015.2 mb - 0.00 in0.0 mm 0.00 in0.0 mm
05:30 AM 72.4°F22.4°C 64.4°F18.0°C 76% Calm Calm -- 29.98 in1015.2 mb - 0.00 in0.0 mm 0.00 in0.0 mm
05:35 AM 72.3°F22.4°C 64.3°F17.9°C 76% 1.2 mph E1.9 kmh E 1.2 mph1.9 kmh 29.98 in1015.2 mb - 0.00 in0.0 mm 0.00 in0.0 mm
05:40 AM 72.2°F22.3°C 64.2°F17.9°C 76% Calm Calm -- 29.98 in1015.2 mb - 0.00 in0.0 mm 0.00 in0.0 mm
05:45 AM 72.2°F22.3°C 64.6°F18.1°C 77% Calm Calm -- 29.99 in1015.6 mb - 0.00 in0.0 mm 0.00 in0.0 mm
05:50 AM 72.2°F22.3°C 64.2°F17.9°C 76% Calm Calm 1.2 mph1.9 kmh 29.99 in1015.6 mb - 0.00 in0.0 mm 0.00 in0.0 mm
05:55 AM 72.2°F22.3°C 64.2°F17.9°C 76% 1.2 mph E1.9 kmh E 2.3 mph3.7 kmh 29.99 in1015.6 mb - 0.00 in0.0 mm 0.00 in0.0 mm
06:00 AM 72.2°F22.3°C 64.2°F17.9°C 76% 1.2 mph E1.9 kmh E 2.3 mph3.7 kmh 29.99 in1015.6 mb - 0.00 in0.0 mm 0.00 in0.0 mm
06:05 AM 72.2°F22.3°C 64.2°F17.9°C 76% Calm Calm -- 30.00 in1015.9 mb - 0.00 in0.0 mm 0.00 in0.0 mm
06:10 AM 72.2°F22.3°C 64.2°F17.9°C 76% Calm Calm -- 30.00 in1015.9 mb - 0.00 in0.0 mm 0.00 in0.0 mm
06:15 AM 72.1°F22.3°C 64.1°F17.8°C 76% Calm Calm 1.2 mph1.9 kmh 30.00 in1015.9 mb - 0.00 in0.0 mm 0.00 in0.0 mm
06:20 AM 72.0°F22.2°C 64.0°F17.8°C 76% 1.2 mph E1.9 kmh E 2.3 mph3.7 kmh 30.00 in1015.9 mb - 0.00 in0.0 mm 0.00 in0.0 mm
06:25 AM 72.0°F22.2°C 64.0°F17.8°C 76% 2.3 mph E3.7 kmh E 2.3 mph3.7 kmh 30.00 in1015.9 mb - 0.00 in0.0 mm 0.00 in0.0 mm
06:30 AM 72.1°F22.3°C 64.5°F18.1°C 77% 2.3 mph E3.7 kmh E 2.3 mph3.7 kmh 30.00 in1015.9 mb - 0.00 in0.0 mm 0.00 in0.0 mm
06:35 AM 72.1°F22.3°C 64.5°F18.1°C 77% 2.3 mph N3.7 kmh N 3.5 mph5.6 kmh 30.00 in1015.9 mb - 0.00 in0.0 mm 0.00 in0.0 mm
06:40 AM 72.2°F22.3°C 64.6°F18.1°C 77% 2.3 mph NW3.7 kmh NW 3.5 mph5.6 kmh 30.00 in1015.9 mb - 0.00 in0.0 mm 0.00 in0.0 mm
06:45 AM 72.2°F22.3°C 64.6°F18.1°C 77% 1.2 mph NW1.9 kmh NW 2.3 mph3.7 kmh 30.00 in1015.9 mb - 0.00 in0.0 mm 0.00 in0.0 mm
06:50 AM 72.2°F22.3°C 64.6°F18.1°C 77% 1.2 mph NW1.9 kmh NW 2.3 mph3.7 kmh 30.00 in1015.9 mb - 0.00 in0.0 mm 0.00 in0.0 mm
06:55 AM 72.3°F22.4°C 64.7°F18.2°C 77% 1.2 mph NW1.9 kmh NW 1.2 mph1.9 kmh 30.00 in1015.9 mb - 0.00 in0.0 mm 0.00 in0.0 mm
07:00 AM 72.3°F22.4°C 64.7°F18.2°C 77% Calm Calm 1.2 mph1.9 kmh 30.00 in1015.9 mb - 0.00 in0.0 mm 0.00 in0.0 mm
07:05 AM 72.4°F22.4°C 64.8°F18.2°C 77% 3.5 mph NW5.6 kmh NW 3.5 mph5.6 kmh 30.00 in1015.9 mb - 0.00 in0.0 mm 0.00 in0.0 mm
07:10 AM 72.5°F22.5°C 64.8°F18.2°C 77% 2.3 mph NW3.7 kmh NW 2.3 mph3.7 kmh 30.00 in1015.9 mb - 0.00 in0.0 mm 0.00 in0.0 mm
07:15 AM 72.6°F22.6°C 65.0°F18.3°C 77% 2.3 mph NW3.7 kmh NW 3.5 mph5.6 kmh 30.00 in1015.9 mb - 0.00 in0.0 mm 0.00 in0.0 mm
07:20 AM 72.6°F22.6°C 65.0°F18.3°C 77% 2.3 mph NNW3.7 kmh NNW 3.5 mph5.6 kmh 30.00 in1015.9 mb - 0.00 in0.0 mm 0.00 in0.0 mm
07:25 AM 72.6°F22.6°C 64.6°F18.1°C 76% 3.5 mph N5.6 kmh N 3.5 mph5.6 kmh 30.00 in1015.9 mb - 0.00 in0.0 mm 0.00 in0.0 mm
07:30 AM 72.7°F22.6°C 65.1°F18.4°C 77% 2.3 mph N3.7 kmh N 3.5 mph5.6 kmh 30.00 in1015.9 mb - 0.00 in0.0 mm 0.00 in0.0 mm
07:35 AM 72.7°F22.6°C 65.1°F18.4°C 77% 2.3 mph NNW3.7 kmh NNW 3.5 mph5.6 kmh 30.00 in1015.9 mb - 0.00 in0.0 mm 0.00 in0.0 mm
07:40 AM 72.7°F22.6°C 65.1°F18.4°C 77% 2.3 mph NNW3.7 kmh NNW 3.5 mph5.6 kmh 30.00 in1015.9 mb - 0.00 in0.0 mm 0.00 in0.0 mm
07:45 AM 72.7°F22.6°C 65.4°F18.6°C 78% 2.3 mph NNW3.7 kmh NNW 3.5 mph5.6 kmh 30.00 in1015.9 mb - 0.00 in0.0 mm 0.00 in0.0 mm
07:50 AM 72.8°F22.7°C 65.5°F18.6°C 78% 2.3 mph NNW3.7 kmh NNW 3.5 mph5.6 kmh 30.00 in1015.9 mb - 0.00 in0.0 mm 0.00 in0.0 mm
07:55 AM 72.9°F22.7°C 65.6°F18.7°C 78% 2.3 mph NNW3.7 kmh NNW 3.5 mph5.6 kmh 29.99 in1015.6 mb - 0.00 in0.0 mm 0.00 in0.0 mm
08:00 AM 73.1°F22.8°C 65.8°F18.8°C 78% 3.5 mph N5.6 kmh N 3.5 mph5.6 kmh 30.00 in1015.9 mb - 0.00 in0.0 mm 0.00 in0.0 mm
08:05 AM 73.5°F23.1°C 66.3°F19.1°C 78% 2.3 mph N3.7 kmh N 3.5 mph5.6 kmh 30.00 in1015.9 mb - 0.00 in0.0 mm 0.00 in0.0 mm
08:10 AM 73.9°F23.3°C 66.6°F19.2°C 78% 2.3 mph N3.7 kmh N 3.5 mph5.6 kmh 30.00 in1015.9 mb - 0.00 in0.0 mm 0.00 in0.0 mm
08:15 AM 74.2°F23.4°C 66.1°F18.9°C 76% 3.5 mph NNW5.6 kmh NNW 3.5 mph5.6 kmh 30.00 in1015.9 mb - 0.00 in0.0 mm 0.00 in0.0 mm
08:20 AM 74.4°F23.6°C 66.7°F19.3°C 77% 1.2 mph NNW1.9 kmh NNW 1.2 mph1.9 kmh 30.00 in1015.9 mb - 0.00 in0.0 mm 0.00 in0.0 mm
08:25 AM 74.7°F23.7°C 66.6°F19.2°C 76% 1.2 mph NNW1.9 kmh NNW 2.3 mph3.7 kmh 30.00 in1015.9 mb - 0.00 in0.0 mm 0.00 in0.0 mm
08:30 AM 75.4°F24.1°C 66.9°F19.4°C 75% Calm Calm -- 29.99 in1015.6 mb - 0.00 in0.0 mm 0.00 in0.0 mm
08:35 AM 76.1°F24.5°C 66.8°F19.3°C 73% 2.3 mph NNW3.7 kmh NNW 3.5 mph5.6 kmh 30.00 in1015.9 mb - 0.00 in0.0 mm 0.00 in0.0 mm
08:40 AM 76.4°F24.7°C 67.1°F19.5°C 73% 2.3 mph NNW3.7 kmh NNW 3.5 mph5.6 kmh 30.00 in1015.9 mb - 0.00 in0.0 mm 0.00 in0.0 mm
08:45 AM 76.9°F24.9°C 67.2°F19.6°C 72% 2.3 mph NNW3.7 kmh NNW 3.5 mph5.6 kmh 30.00 in1015.9 mb - 0.00 in0.0 mm 0.00 in0.0 mm
08:50 AM 77.1°F25.1°C 66.1°F18.9°C 69% 2.3 mph NNW3.7 kmh NNW 3.5 mph5.6 kmh 30.00 in1015.9 mb - 0.00 in0.0 mm 0.00 in0.0 mm
08:55 AM 77.4°F25.2°C 66.4°F19.1°C 69% 2.3 mph NNW3.7 kmh NNW 3.5 mph5.6 kmh 30.00 in1015.9 mb - 0.00 in0.0 mm 0.00 in0.0 mm
09:00 AM 77.8°F25.4°C 66.8°F19.3°C 69% Calm Calm 3.5 mph5.6 kmh 30.00 in1015.9 mb - 0.00 in0.0 mm 0.00 in0.0 mm
09:05 AM 78.1°F25.6°C 66.2°F19.0°C 67% 2.3 mph NNW3.7 kmh NNW 2.3 mph3.7 kmh 30.00 in1015.9 mb - 0.00 in0.0 mm 0.00 in0.0 mm
09:10 AM 78.4°F25.8°C 67.0°F19.4°C 68% 2.3 mph NNW3.7 kmh NNW 3.5 mph5.6 kmh 30.00 in1015.9 mb - 0.00 in0.0 mm 0.00 in0.0 mm
09:15 AM 78.6°F25.9°C 66.3°F19.1°C 66% 1.2 mph NNE1.9 kmh NNE 1.2 mph1.9 kmh 30.00 in1015.9 mb - 0.00 in0.0 mm 0.00 in0.0 mm
09:20 AM 78.9°F26.1°C 67.0°F19.4°C 67% 2.3 mph NNE3.7 kmh NNE 3.5 mph5.6 kmh 30.00 in1015.9 mb - 0.00 in0.0 mm 0.00 in0.0 mm
09:25 AM 78.9°F26.1°C 67.0°F19.4°C 67% 1.2 mph NNE1.9 kmh NNE 3.5 mph5.6 kmh 30.00 in1015.9 mb - 0.00 in0.0 mm 0.00 in0.0 mm
09:30 AM 79.1°F26.2°C 67.2°F19.6°C 67% 2.3 mph N3.7 kmh N 3.5 mph5.6 kmh 30.00 in1015.9 mb - 0.00 in0.0 mm 0.00 in0.0 mm
09:35 AM 79.3°F26.3°C 67.0°F19.4°C 66% 1.2 mph NNW1.9 kmh NNW 1.2 mph1.9 kmh 30.00 in1015.9 mb - 0.00 in0.0 mm 0.00 in0.0 mm
09:40 AM 79.7°F26.5°C 67.3°F19.6°C 66% 3.5 mph NNW5.6 kmh NNW 3.5 mph5.6 kmh 30.00 in1015.9 mb - 0.00 in0.0 mm 0.00 in0.0 mm
09:45 AM 80.0°F26.7°C 67.2°F19.6°C 65% 1.2 mph NNW1.9 kmh NNW 3.5 mph5.6 kmh 30.00 in1015.9 mb - 0.00 in0.0 mm 0.00 in0.0 mm
09:50 AM 80.4°F26.9°C 67.6°F19.8°C 65% Calm Calm 2.3 mph3.7 kmh 30.00 in1015.9 mb - 0.00 in0.0 mm 0.00 in0.0 mm
09:55 AM 81.1°F27.3°C 68.2°F20.1°C 65% 3.5 mph NW5.6 kmh NW 3.5 mph5.6 kmh 29.99 in1015.6 mb - 0.00 in0.0 mm 0.00 in0.0 mm
10:00 AM 81.0°F27.2°C 67.7°F19.8°C 64% 2.3 mph NW3.7 kmh NW 3.5 mph5.6 kmh 29.99 in1015.6 mb - 0.00 in0.0 mm 0.00 in0.0 mm
10:05 AM 81.3°F27.4°C 68.0°F20.0°C 64% 3.5 mph N5.6 kmh N 3.5 mph5.6 kmh 29.99 in1015.6 mb - 0.00 in0.0 mm 0.00 in0.0 mm
10:10 AM 81.5°F27.5°C 67.7°F19.8°C 63% 2.3 mph NW3.7 kmh NW 3.5 mph5.6 kmh 29.99 in1015.6 mb - 0.00 in0.0 mm 0.00 in0.0 mm
10:15 AM 81.7°F27.6°C 67.8°F19.9°C 63% 4.6 mph NNW7.4 kmh NNW 6.9 mph11.1 kmh 29.99 in1015.6 mb - 0.00 in0.0 mm 0.00 in0.0 mm
10:20 AM 82.1°F27.8°C 66.8°F19.3°C 60% 3.5 mph N5.6 kmh N 4.6 mph7.4 kmh 29.99 in1015.6 mb - 0.00 in0.0 mm 0.00 in0.0 mm
10:25 AM 82.6°F28.1°C 67.3°F19.6°C 60% 3.5 mph N5.6 kmh N 3.5 mph5.6 kmh 29.99 in1015.6 mb - 0.00 in0.0 mm 0.00 in0.0 mm
10:30 AM 83.0°F28.3°C 65.7°F18.7°C 56% 3.5 mph NW5.6 kmh NW 5.8 mph9.3 kmh 29.99 in1015.6 mb - 0.00 in0.0 mm 0.00 in0.0 mm
10:35 AM 83.1°F28.4°C 65.2°F18.4°C 55% 4.6 mph N7.4 kmh N 3.5 mph5.6 kmh 29.99 in1015.6 mb - 0.00 in0.0 mm 0.00 in0.0 mm
10:40 AM 83.5°F28.6°C 65.6°F18.7°C 55% 3.5 mph NE5.6 kmh NE 3.5 mph5.6 kmh 29.99 in1015.6 mb - 0.00 in0.0 mm 0.00 in0.0 mm
10:45 AM 83.7°F28.7°C 65.8°F18.8°C 55% 3.5 mph NNE5.6 kmh NNE 6.9 mph11.1 kmh 29.99 in1015.6 mb - 0.00 in0.0 mm 0.00 in0.0 mm
10:50 AM 83.6°F28.7°C 65.7°F18.7°C 55% 2.3 mph N3.7 kmh N 3.5 mph5.6 kmh 29.99 in1015.6 mb - 0.00 in0.0 mm 0.00 in0.0 mm
10:55 AM 83.7°F28.7°C 65.3°F18.5°C 54% 2.3 mph NW3.7 kmh NW 3.5 mph5.6 kmh 29.99 in1015.6 mb - 0.00 in0.0 mm 0.00 in0.0 mm
11:00 AM 84.2°F29.0°C 65.2°F18.4°C 53% 1.2 mph W1.9 kmh W 3.5 mph5.6 kmh 29.99 in1015.6 mb - 0.00 in0.0 mm 0.00 in0.0 mm
11:05 AM 84.9°F29.4°C 66.4°F19.1°C 54% 4.6 mph N7.4 kmh N 4.6 mph7.4 kmh 29.99 in1015.6 mb - 0.00 in0.0 mm 0.00 in0.0 mm
11:10 AM 84.7°F29.3°C 65.1°F18.4°C 52% 3.5 mph N5.6 kmh N 3.5 mph5.6 kmh 29.98 in1015.2 mb - 0.00 in0.0 mm 0.00 in0.0 mm
11:15 AM 84.7°F29.3°C 64.6°F18.1°C 51% 2.3 mph N3.7 kmh N 4.6 mph7.4 kmh 29.98 in1015.2 mb - 0.00 in0.0 mm 0.00 in0.0 mm
11:20 AM 85.1°F29.5°C 64.3°F17.9°C 50% 2.3 mph WNW3.7 kmh WNW 3.5 mph5.6 kmh 29.98 in1015.2 mb - 0.00 in0.0 mm 0.00 in0.0 mm
11:25 AM 85.1°F29.5°C 65.5°F18.6°C 52% 3.5 mph N5.6 kmh N 3.5 mph5.6 kmh 29.98 in1015.2 mb - 0.00 in0.0 mm 0.00 in0.0 mm
11:30 AM 85.3°F29.6°C 64.0°F17.8°C 49% 2.3 mph NNW3.7 kmh NNW 3.5 mph5.6 kmh 29.98 in1015.2 mb - 0.00 in0.0 mm 0.00 in0.0 mm
11:35 AM 85.1°F29.5°C 63.8°F17.7°C 49% 2.3 mph WNW3.7 kmh WNW 3.5 mph5.6 kmh 29.98 in1015.2 mb - 0.00 in0.0 mm 0.00 in0.0 mm
11:40 AM 86.0°F30.0°C 64.6°F18.1°C 49% 1.2 mph N1.9 kmh N 2.3 mph3.7 kmh 29.97 in1014.9 mb - 0.00 in0.0 mm 0.00 in0.0 mm
11:45 AM 86.8°F30.4°C 64.8°F18.2°C 48% 4.6 mph ENE7.4 kmh ENE 5.8 mph9.3 kmh 29.97 in1014.9 mb - 0.00 in0.0 mm 0.00 in0.0 mm
11:50 AM 86.4°F30.2°C 64.4°F18.0°C 48% 2.3 mph N3.7 kmh N 3.5 mph5.6 kmh 29.97 in1014.9 mb - 0.00 in0.0 mm 0.00 in0.0 mm
11:55 AM 86.6°F30.3°C 64.0°F17.8°C 47% 3.5 mph NE5.6 kmh NE 4.6 mph7.4 kmh 29.97 in1014.9 mb - 0.00 in0.0 mm 0.00 in0.0 mm
12:00 PM 86.4°F30.2°C 63.8°F17.7°C 47% 2.3 mph N3.7 kmh N 3.5 mph5.6 kmh 29.97 in1014.9 mb - 0.00 in0.0 mm 0.00 in0.0 mm
12:05 PM 86.8°F30.4°C 64.2°F17.9°C 47% 1.2 mph E1.9 kmh E 2.3 mph3.7 kmh 29.97 in1014.9 mb - 0.00 in0.0 mm 0.00 in0.0 mm
12:10 PM 86.7°F30.4°C 63.4°F17.4°C 46% 3.5 mph N5.6 kmh N 3.5 mph5.6 kmh 29.96 in1014.6 mb - 0.00 in0.0 mm 0.00 in0.0 mm
12:15 PM 86.5°F30.3°C 63.8°F17.7°C 47% 3.5 mph ESE5.6 kmh ESE 5.8 mph9.3 kmh 29.96 in1014.6 mb - 0.00 in0.0 mm 0.00 in0.0 mm
12:20 PM 86.8°F30.4°C 64.7°F18.2°C 48% 3.5 mph ESE5.6 kmh ESE 5.8 mph9.3 kmh 29.96 in1014.6 mb - 0.00 in0.0 mm 0.00 in0.0 mm
12:25 PM 87.5°F30.8°C 64.8°F18.2°C 47% 4.6 mph ENE7.4 kmh ENE 6.9 mph11.1 kmh 29.96 in1014.6 mb - 0.00 in0.0 mm 0.00 in0.0 mm
12:30 PM 88.1°F31.2°C 65.3°F18.5°C 47% 3.5 mph E5.6 kmh E 4.6 mph7.4 kmh 29.96 in1014.6 mb - 0.00 in0.0 mm 0.00 in0.0 mm
12:35 PM 88.0°F31.1°C 65.2°F18.4°C 47% 2.3 mph E3.7 kmh E 4.6 mph7.4 kmh 29.96 in1014.6 mb - 0.00 in0.0 mm 0.00 in0.0 mm
12:40 PM 87.6°F30.9°C 64.3°F17.9°C 46% 2.3 mph E3.7 kmh E 4.6 mph7.4 kmh 29.95 in1014.2 mb - 0.00 in0.0 mm 0.00 in0.0 mm
12:45 PM 87.1°F30.6°C 63.8°F17.7°C 46% 1.2 mph E1.9 kmh E 2.3 mph3.7 kmh 29.95 in1014.2 mb - 0.00 in0.0 mm 0.00 in0.0 mm
12:50 PM 87.6°F30.9°C 64.9°F18.3°C 47% 2.3 mph SE3.7 kmh SE 5.8 mph9.3 kmh 29.95 in1014.2 mb - 0.00 in0.0 mm 0.00 in0.0 mm
12:55 PM 88.1°F31.2°C 64.7°F18.2°C 46% 4.6 mph ESE7.4 kmh ESE 9.2 mph14.8 kmh 29.95 in1014.2 mb - 0.00 in0.0 mm 0.00 in0.0 mm
01:00 PM 88.2°F31.2°C 64.8°F18.2°C 46% 6.9 mph E11.1 kmh E 10.4 mph16.7 kmh 29.94 in1013.9 mb - 0.00 in0.0 mm 0.00 in0.0 mm
01:05 PM 88.0°F31.1°C 65.2°F18.4°C 47% 3.5 mph ESE5.6 kmh ESE 5.8 mph9.3 kmh 29.94 in1013.9 mb - 0.00 in0.0 mm 0.00 in0.0 mm
01:10 PM 88.2°F31.2°C 64.8°F18.2°C 46% 3.5 mph NE5.6 kmh NE 6.9 mph11.1 kmh 29.94 in1013.9 mb - 0.00 in0.0 mm 0.00 in0.0 mm
01:15 PM 88.2°F31.2°C 64.8°F18.2°C 46% 3.5 mph N5.6 kmh N 3.5 mph5.6 kmh 29.93 in1013.5 mb - 0.00 in0.0 mm 0.00 in0.0 mm
01:20 PM 87.9°F31.1°C 64.5°F18.1°C 46% 5.8 mph E9.3 kmh E 6.9 mph11.1 kmh 29.93 in1013.5 mb - 0.00 in0.0 mm 0.00 in0.0 mm
01:25 PM 87.3°F30.7°C 64.6°F18.1°C 47% 2.3 mph S3.7 kmh S 2.3 mph3.7 kmh 29.93 in1013.5 mb - 0.00 in0.0 mm 0.00 in0.0 mm
01:30 PM 87.8°F31.0°C 65.0°F18.3°C 47% 1.2 mph SE1.9 kmh SE 2.3 mph3.7 kmh 29.93 in1013.5 mb - 0.00 in0.0 mm 0.00 in0.0 mm
01:35 PM 88.3°F31.3°C 66.2°F19.0°C 48% 3.5 mph NE5.6 kmh NE 3.5 mph5.6 kmh 29.93 in1013.5 mb - 0.00 in0.0 mm 0.00 in0.0 mm
01:40 PM 88.3°F31.3°C 65.5°F18.6°C 47% 4.6 mph ENE7.4 kmh ENE 6.9 mph11.1 kmh 29.93 in1013.5 mb - 0.00 in0.0 mm 0.00 in0.0 mm
01:45 PM 88.2°F31.2°C 64.8°F18.2°C 46% 2.3 mph ENE3.7 kmh ENE 5.8 mph9.3 kmh 29.92 in1013.2 mb - 0.00 in0.0 mm 0.00 in0.0 mm
01:50 PM 88.1°F31.2°C 64.7°F18.2°C 46% 3.5 mph ENE5.6 kmh ENE 3.5 mph5.6 kmh 29.92 in1013.2 mb - 0.00 in0.0 mm 0.00 in0.0 mm
01:55 PM 87.5°F30.8°C 64.8°F18.2°C 47% 3.5 mph NW5.6 kmh NW 4.6 mph7.4 kmh 29.92 in1013.2 mb - 0.00 in0.0 mm 0.00 in0.0 mm
02:00 PM 87.7°F30.9°C 65.6°F18.7°C 48% 3.5 mph NW5.6 kmh NW 3.5 mph5.6 kmh 29.92 in1013.2 mb - 0.00 in0.0 mm 0.00 in0.0 mm
02:05 PM 87.7°F30.9°C 65.0°F18.3°C 47% 3.5 mph NW5.6 kmh NW 3.5 mph5.6 kmh 29.92 in1013.2 mb - 0.00 in0.0 mm 0.00 in0.0 mm
02:10 PM 87.9°F31.1°C 65.7°F18.7°C 48% 2.3 mph NNW3.7 kmh NNW 3.5 mph5.6 kmh 29.91 in1012.9 mb - 0.00 in0.0 mm 0.00 in0.0 mm
02:15 PM 88.1°F31.2°C 65.9°F18.8°C 48% 3.5 mph NNW5.6 kmh NNW 4.6 mph7.4 kmh 29.91 in1012.9 mb - 0.00 in0.0 mm 0.00 in0.0 mm
02:20 PM 88.1°F31.2°C 65.3°F18.5°C 47% 2.3 mph NNE3.7 kmh NNE 5.8 mph9.3 kmh 29.91 in1012.9 mb - 0.00 in0.0 mm 0.00 in0.0 mm
02:25 PM 88.6°F31.4°C 65.8°F18.8°C 47% 4.6 mph E7.4 kmh E 8.1 mph13.0 kmh 29.90 in1012.5 mb - 0.00 in0.0 mm 0.00 in0.0 mm
02:30 PM 88.9°F31.6°C 65.4°F18.6°C 46% 4.6 mph NE7.4 kmh NE 6.9 mph11.1 kmh 29.90 in1012.5 mb - 0.00 in0.0 mm 0.00 in0.0 mm
02:35 PM 88.7°F31.5°C 65.3°F18.5°C 46% 5.8 mph E9.3 kmh E 8.1 mph13.0 kmh 29.90 in1012.5 mb - 0.00 in0.0 mm 0.00 in0.0 mm
02:40 PM 88.4°F31.3°C 65.0°F18.3°C 46% 2.3 mph ENE3.7 kmh ENE 3.5 mph5.6 kmh 29.90 in1012.5 mb - 0.00 in0.0 mm 0.00 in0.0 mm
02:45 PM 88.6°F31.4°C 65.2°F18.4°C 46% 3.5 mph E5.6 kmh E 4.6 mph7.4 kmh 29.89 in1012.2 mb - 0.00 in0.0 mm 0.00 in0.0 mm
02:50 PM 88.2°F31.2°C 64.2°F17.9°C 45% 1.2 mph ESE1.9 kmh ESE 2.3 mph3.7 kmh 29.89 in1012.2 mb - 0.00 in0.0 mm 0.00 in0.0 mm
02:55 PM 88.8°F31.6°C 65.4°F18.6°C 46% 1.2 mph E1.9 kmh E 2.3 mph3.7 kmh 29.89 in1012.2 mb - 0.00 in0.0 mm 0.00 in0.0 mm
03:00 PM 89.3°F31.8°C 65.8°F18.8°C 46% 2.3 mph N3.7 kmh N 3.5 mph5.6 kmh 29.89 in1012.2 mb - 0.00 in0.0 mm 0.00 in0.0 mm
03:05 PM 88.9°F31.6°C 64.8°F18.2°C 45% 4.6 mph N7.4 kmh N 9.2 mph14.8 kmh 29.90 in1012.5 mb - 0.00 in0.0 mm 0.00 in0.0 mm
03:10 PM 88.2°F31.2°C 64.8°F18.2°C 46% 4.6 mph NNW7.4 kmh NNW 6.9 mph11.1 kmh 29.90 in1012.5 mb - 0.00 in0.0 mm 0.00 in0.0 mm
03:15 PM 88.3°F31.3°C 64.9°F18.3°C 46% 5.8 mph E9.3 kmh E 8.1 mph13.0 kmh 29.89 in1012.2 mb - 0.00 in0.0 mm 0.00 in0.0 mm
03:20 PM 88.7°F31.5°C 66.5°F19.2°C 48% 6.9 mph N11.1 kmh N 6.9 mph11.1 kmh 29.89 in1012.2 mb - 0.00 in0.0 mm 0.00 in0.0 mm
03:25 PM 88.1°F31.2°C 65.4°F18.6°C 47% 5.8 mph N9.3 kmh N 6.9 mph11.1 kmh 29.89 in1012.2 mb - 0.00 in0.0 mm 0.00 in0.0 mm
03:30 PM 87.9°F31.1°C 65.2°F18.4°C 47% 4.6 mph E7.4 kmh E 5.8 mph9.3 kmh 29.89 in1012.2 mb - 0.00 in0.0 mm 0.00 in0.0 mm
03:35 PM 88.6°F31.4°C 66.4°F19.1°C 48% 4.6 mph N7.4 kmh N 10.4 mph16.7 kmh 29.89 in1012.2 mb - 0.00 in0.0 mm 0.00 in0.0 mm
03:40 PM 87.3°F30.7°C 62.7°F17.1°C 44% 8.1 mph NNE13.0 kmh NNE 11.5 mph18.5 kmh 29.89 in1012.2 mb - 0.00 in0.0 mm 0.00 in0.0 mm
03:45 PM 86.1°F30.1°C 62.9°F17.2°C 46% 6.9 mph NE11.1 kmh NE 11.5 mph18.5 kmh 29.89 in1012.2 mb - 0.00 in0.0 mm 0.00 in0.0 mm
03:50 PM 85.8°F29.9°C 62.6°F17.0°C 46% 5.8 mph NE9.3 kmh NE 11.5 mph18.5 kmh 29.89 in1012.2 mb - 0.00 in0.0 mm 0.00 in0.0 mm
03:55 PM 85.8°F29.9°C 63.3°F17.4°C 47% 5.8 mph N9.3 kmh N 10.4 mph16.7 kmh 29.89 in1012.2 mb - 0.00 in0.0 mm 0.00 in0.0 mm
04:00 PM 85.5°F29.7°C 63.0°F17.2°C 47% 8.1 mph N13.0 kmh N 13.8 mph22.2 kmh 29.89 in1012.2 mb - 0.00 in0.0 mm 0.00 in0.0 mm
04:05 PM 85.0°F29.4°C 63.1°F17.3°C 48% 6.9 mph N11.1 kmh N 11.5 mph18.5 kmh 29.89 in1012.2 mb - 0.00 in0.0 mm 0.00 in0.0 mm
04:10 PM 84.8°F29.3°C 63.5°F17.5°C 49% 5.8 mph N9.3 kmh N 8.1 mph13.0 kmh 29.88 in1011.9 mb - 0.00 in0.0 mm 0.00 in0.0 mm
04:15 PM 84.9°F29.4°C 63.0°F17.2°C 48% 6.9 mph NNE11.1 kmh NNE 11.5 mph18.5 kmh 29.88 in1011.9 mb - 0.00 in0.0 mm 0.00 in0.0 mm
04:20 PM 84.8°F29.3°C 62.9°F17.2°C 48% 8.1 mph N13.0 kmh N 11.5 mph18.5 kmh 29.88 in1011.9 mb - 0.00 in0.0 mm 0.00 in0.0 mm
04:25 PM 84.6°F29.2°C 63.3°F17.4°C 49% 4.6 mph N7.4 kmh N 4.6 mph7.4 kmh 29.87 in1011.5 mb - 0.00 in0.0 mm 0.00 in0.0 mm
04:30 PM 84.7°F29.3°C 63.4°F17.4°C 49% 6.9 mph N11.1 kmh N 11.5 mph18.5 kmh 29.87 in1011.5 mb - 0.00 in0.0 mm 0.00 in0.0 mm
04:35 PM 84.6°F29.2°C 63.9°F17.7°C 50% 8.1 mph NNE13.0 kmh NNE 12.7 mph20.4 kmh 29.87 in1011.5 mb - 0.00 in0.0 mm 0.00 in0.0 mm
04:40 PM 84.4°F29.1°C 63.7°F17.6°C 50% 4.6 mph NNE7.4 kmh NNE 4.6 mph7.4 kmh 29.87 in1011.5 mb - 0.00 in0.0 mm 0.00 in0.0 mm
04:45 PM 84.5°F29.2°C 62.7°F17.1°C 48% 6.9 mph N11.1 kmh N 8.1 mph13.0 kmh 29.87 in1011.5 mb - 0.00 in0.0 mm 0.00 in0.0 mm
04:50 PM 84.4°F29.1°C 62.6°F17.0°C 48% 3.5 mph N5.6 kmh N 11.5 mph18.5 kmh 29.87 in1011.5 mb - 0.00 in0.0 mm 0.00 in0.0 mm
04:55 PM 84.1°F28.9°C 62.3°F16.8°C 48% 6.9 mph NNE11.1 kmh NNE 12.7 mph20.4 kmh 29.87 in1011.5 mb - 0.00 in0.0 mm 0.00 in0.0 mm
05:00 PM 83.9°F28.8°C 63.3°F17.4°C 50% 3.5 mph NE5.6 kmh NE 4.6 mph7.4 kmh 29.87 in1011.5 mb - 0.00 in0.0 mm 0.00 in0.0 mm
05:05 PM 83.9°F28.8°C 63.8°F17.7°C 51% 4.6 mph NE7.4 kmh NE 11.5 mph18.5 kmh 29.87 in1011.5 mb - 0.00 in0.0 mm 0.00 in0.0 mm
05:10 PM 83.6°F28.7°C 63.0°F17.2°C 50% 5.8 mph NE9.3 kmh NE 10.4 mph16.7 kmh 29.87 in1011.5 mb - 0.00 in0.0 mm 0.00 in0.0 mm
05:15 PM 83.4°F28.6°C 63.9°F17.7°C 52% 6.9 mph ENE11.1 kmh ENE 8.1 mph13.0 kmh 29.87 in1011.5 mb - 0.00 in0.0 mm 0.00 in0.0 mm
05:20 PM 83.2°F28.4°C 63.7°F17.6°C 52% 5.8 mph NE9.3 kmh NE 9.2 mph14.8 kmh 29.87 in1011.5 mb - 0.00 in0.0 mm 0.00 in0.0 mm
05:25 PM 83.0°F28.3°C 63.6°F17.6°C 52% 2.3 mph NE3.7 kmh NE 3.5 mph5.6 kmh 29.87 in1011.5 mb - 0.00 in0.0 mm 0.00 in0.0 mm
05:30 PM 82.8°F28.2°C 64.0°F17.8°C 53% 3.5 mph NNE5.6 kmh NNE 3.5 mph5.6 kmh 29.87 in1011.5 mb - 0.00 in0.0 mm 0.00 in0.0 mm
05:35 PM 82.7°F28.2°C 64.4°F18.0°C 54% 3.5 mph NE5.6 kmh NE 4.6 mph7.4 kmh 29.88 in1011.9 mb - 0.00 in0.0 mm 0.00 in0.0 mm
05:40 PM 82.6°F28.1°C 64.3°F17.9°C 54% 2.3 mph E3.7 kmh E 5.8 mph9.3 kmh 29.87 in1011.5 mb - 0.00 in0.0 mm 0.00 in0.0 mm
05:45 PM 82.6°F28.1°C 64.8°F18.2°C 55% 4.6 mph NE7.4 kmh NE 8.1 mph13.0 kmh 29.88 in1011.9 mb - 0.00 in0.0 mm 0.00 in0.0 mm
05:50 PM 82.4°F28.0°C 65.6°F18.7°C 57% 2.3 mph NNE3.7 kmh NNE 3.5 mph5.6 kmh 29.88 in1011.9 mb - 0.00 in0.0 mm 0.00 in0.0 mm
05:55 PM 82.3°F27.9°C 65.5°F18.6°C 57% 3.5 mph NNE5.6 kmh NNE 3.5 mph5.6 kmh 29.87 in1011.5 mb - 0.00 in0.0 mm 0.00 in0.0 mm
06:00 PM 82.1°F27.8°C 65.4°F18.6°C 57% 4.6 mph NNE7.4 kmh NNE 6.9 mph11.1 kmh 29.87 in1011.5 mb - 0.00 in0.0 mm 0.00 in0.0 mm
06:05 PM 82.0°F27.8°C 65.2°F18.4°C 57% 3.5 mph N5.6 kmh N 5.8 mph9.3 kmh 29.87 in1011.5 mb - 0.00 in0.0 mm 0.00 in0.0 mm
06:10 PM 81.7°F27.6°C 65.0°F18.3°C 57% 4.6 mph NNE7.4 kmh NNE 3.5 mph5.6 kmh 29.87 in1011.5 mb - 0.00 in0.0 mm 0.00 in0.0 mm
06:15 PM 81.5°F27.5°C 65.3°F18.5°C 58% 3.5 mph NNE5.6 kmh NNE 4.6 mph7.4 kmh 29.88 in1011.9 mb - 0.00 in0.0 mm 0.00 in0.0 mm
06:20 PM 81.3°F27.4°C 64.6°F18.1°C 57% 3.5 mph NE5.6 kmh NE 4.6 mph7.4 kmh 29.88 in1011.9 mb - 0.00 in0.0 mm 0.00 in0.0 mm
06:25 PM 81.2°F27.3°C 65.0°F18.3°C 58% 2.3 mph N3.7 kmh N 3.5 mph5.6 kmh 29.88 in1011.9 mb - 0.00 in0.0 mm 0.00 in0.0 mm
06:30 PM 81.1°F27.3°C 64.9°F18.3°C 58% 2.3 mph ENE3.7 kmh ENE 3.5 mph5.6 kmh 29.88 in1011.9 mb - 0.00 in0.0 mm 0.00 in0.0 mm
06:35 PM 80.9°F27.2°C 65.2°F18.4°C 59% 2.3 mph E3.7 kmh E 5.8 mph9.3 kmh 29.88 in1011.9 mb - 0.00 in0.0 mm 0.00 in0.0 mm
06:40 PM 80.7°F27.1°C 65.0°F18.3°C 59% 2.3 mph NE3.7 kmh NE 3.5 mph5.6 kmh 29.88 in1011.9 mb - 0.00 in0.0 mm 0.00 in0.0 mm
06:45 PM 80.5°F26.9°C 65.3°F18.5°C 60% 2.3 mph NE3.7 kmh NE 3.5 mph5.6 kmh 29.88 in1011.9 mb - 0.00 in0.0 mm 0.00 in0.0 mm
06:50 PM 80.3°F26.8°C 65.1°F18.4°C 60% 2.3 mph NE3.7 kmh NE 3.5 mph5.6 kmh 29.89 in1012.2 mb - 0.00 in0.0 mm 0.00 in0.0 mm
06:55 PM 80.2°F26.8°C 65.0°F18.3°C 60% 2.3 mph NE3.7 kmh NE 3.5 mph5.6 kmh 29.89 in1012.2 mb - 0.00 in0.0 mm 0.00 in0.0 mm
07:00 PM 79.9°F26.6°C 65.3°F18.5°C 61% 2.3 mph E3.7 kmh E 3.5 mph5.6 kmh 29.89 in1012.2 mb - 0.00 in0.0 mm 0.00 in0.0 mm
07:05 PM 79.7°F26.5°C 65.5°F18.6°C 62% 2.3 mph NE3.7 kmh NE 3.5 mph5.6 kmh 29.89 in1012.2 mb - 0.00 in0.0 mm 0.00 in0.0 mm
07:10 PM 79.5°F26.4°C 65.4°F18.6°C 62% 3.5 mph E5.6 kmh E 4.6 mph7.4 kmh 29.89 in1012.2 mb - 0.00 in0.0 mm 0.00 in0.0 mm
07:15 PM 79.4°F26.3°C 65.7°F18.7°C 63% 1.2 mph ENE1.9 kmh ENE 3.5 mph5.6 kmh 29.89 in1012.2 mb - 0.00 in0.0 mm 0.00 in0.0 mm
07:20 PM 79.2°F26.2°C 65.5°F18.6°C 63% 3.5 mph NE5.6 kmh NE 3.5 mph5.6 kmh 29.89 in1012.2 mb - 0.00 in0.0 mm 0.00 in0.0 mm
07:25 PM 79.0°F26.1°C 65.3°F18.5°C 63% 2.3 mph NE3.7 kmh NE 2.3 mph3.7 kmh 29.89 in1012.2 mb - 0.00 in0.0 mm 0.00 in0.0 mm
07:30 PM 78.8°F26.0°C 65.6°F18.7°C 64% 1.2 mph NE1.9 kmh NE 3.5 mph5.6 kmh 29.90 in1012.5 mb - 0.00 in0.0 mm 0.00 in0.0 mm
07:35 PM 78.7°F25.9°C 65.5°F18.6°C 64% 1.2 mph E1.9 kmh E 3.5 mph5.6 kmh 29.90 in1012.5 mb - 0.00 in0.0 mm 0.00 in0.0 mm
07:40 PM 78.5°F25.8°C 65.3°F18.5°C 64% 3.5 mph ENE5.6 kmh ENE 3.5 mph5.6 kmh 29.90 in1012.5 mb - 0.00 in0.0 mm 0.00 in0.0 mm
07:45 PM 78.3°F25.7°C 65.1°F18.4°C 64% 3.5 mph E5.6 kmh E 4.6 mph7.4 kmh 29.90 in1012.5 mb - 0.00 in0.0 mm 0.00 in0.0 mm
07:50 PM 78.1°F25.6°C 64.9°F18.3°C 64% 2.3 mph E3.7 kmh E 4.6 mph7.4 kmh 29.91 in1012.9 mb - 0.00 in0.0 mm 0.00 in0.0 mm
07:55 PM 77.9°F25.5°C 64.7°F18.2°C 64% 3.5 mph ESE5.6 kmh ESE 3.5 mph5.6 kmh 29.91 in1012.9 mb - 0.00 in0.0 mm 0.00 in0.0 mm
08:00 PM 77.6°F25.3°C 64.5°F18.1°C 64% 4.6 mph E7.4 kmh E 9.2 mph14.8 kmh 29.91 in1012.9 mb - 0.00 in0.0 mm 0.00 in0.0 mm
08:05 PM 77.4°F25.2°C 64.3°F17.9°C 64% 6.9 mph ESE11.1 kmh ESE 8.1 mph13.0 kmh 29.91 in1012.9 mb - 0.00 in0.0 mm 0.00 in0.0 mm
08:10 PM 77.4°F25.2°C 64.3°F17.9°C 64% 4.6 mph SE7.4 kmh SE 4.6 mph7.4 kmh 29.91 in1012.9 mb - 0.00 in0.0 mm 0.00 in0.0 mm
08:15 PM 77.4°F25.2°C 64.3°F17.9°C 64% 2.3 mph SE3.7 kmh SE 3.5 mph5.6 kmh 29.92 in1013.2 mb - 0.00 in0.0 mm 0.00 in0.0 mm
08:20 PM 77.4°F25.2°C 64.3°F17.9°C 64% 2.3 mph ESE3.7 kmh ESE 3.5 mph5.6 kmh 29.92 in1013.2 mb - 0.00 in0.0 mm 0.00 in0.0 mm
08:25 PM 77.3°F25.2°C 64.2°F17.9°C 64% 2.3 mph SE3.7 kmh SE 3.5 mph5.6 kmh 29.92 in1013.2 mb - 0.00 in0.0 mm 0.00 in0.0 mm
08:30 PM 77.3°F25.2°C 64.2°F17.9°C 64% 3.5 mph SE5.6 kmh SE 3.5 mph5.6 kmh 29.92 in1013.2 mb - 0.00 in0.0 mm 0.00 in0.0 mm
08:35 PM 77.3°F25.2°C 64.2°F17.9°C 64% Calm Calm 1.2 mph1.9 kmh 29.91 in1012.9 mb - 0.00 in0.0 mm 0.00 in0.0 mm
08:40 PM 77.3°F25.2°C 64.2°F17.9°C 64% 2.3 mph SE3.7 kmh SE 3.5 mph5.6 kmh 29.92 in1013.2 mb - 0.00 in0.0 mm 0.00 in0.0 mm
08:45 PM 77.2°F25.1°C 64.1°F17.8°C 64% 4.6 mph E7.4 kmh E 5.8 mph9.3 kmh 29.92 in1013.2 mb - 0.00 in0.0 mm 0.00 in0.0 mm
08:50 PM 77.2°F25.1°C 64.5°F18.1°C 65% 1.2 mph E1.9 kmh E 1.2 mph1.9 kmh 29.92 in1013.2 mb - 0.00 in0.0 mm 0.00 in0.0 mm
08:55 PM 77.2°F25.1°C 64.5°F18.1°C 65% 1.2 mph E1.9 kmh E 3.5 mph5.6 kmh 29.91 in1012.9 mb - 0.00 in0.0 mm 0.00 in0.0 mm
09:00 PM 77.0°F25.0°C 64.3°F17.9°C 65% 2.3 mph E3.7 kmh E 3.5 mph5.6 kmh 29.91 in1012.9 mb - 0.00 in0.0 mm 0.00 in0.0 mm
09:05 PM 76.8°F24.9°C 64.6°F18.1°C 66% 2.3 mph E3.7 kmh E 3.5 mph5.6 kmh 29.91 in1012.9 mb - 0.00 in0.0 mm 0.00 in0.0 mm
09:10 PM 76.6°F24.8°C 64.4°F18.0°C 66% 2.3 mph E3.7 kmh E 4.6 mph7.4 kmh 29.91 in1012.9 mb - 0.00 in0.0 mm 0.00 in0.0 mm
09:15 PM 76.4°F24.7°C 64.6°F18.1°C 67% 2.3 mph E3.7 kmh E 3.5 mph5.6 kmh 29.91 in1012.9 mb - 0.00 in0.0 mm 0.00 in0.0 mm
09:20 PM 76.2°F24.6°C 64.4°F18.0°C 67% 1.2 mph E1.9 kmh E 4.6 mph7.4 kmh 29.91 in1012.9 mb - 0.00 in0.0 mm 0.00 in0.0 mm
09:25 PM 76.0°F24.4°C 64.3°F17.9°C 67% 2.3 mph E3.7 kmh E 2.3 mph3.7 kmh 29.91 in1012.9 mb - 0.00 in0.0 mm 0.00 in0.0 mm
09:30 PM 75.9°F24.4°C 64.5°F18.1°C 68% 2.3 mph E3.7 kmh E 3.5 mph5.6 kmh 29.91 in1012.9 mb - 0.00 in0.0 mm 0.00 in0.0 mm
09:35 PM 75.6°F24.2°C 64.3°F17.9°C 68% 2.3 mph E3.7 kmh E 4.6 mph7.4 kmh 29.91 in1012.9 mb - 0.00 in0.0 mm 0.00 in0.0 mm
09:40 PM 75.3°F24.1°C 64.4°F18.0°C 69% 2.3 mph E3.7 kmh E 4.6 mph7.4 kmh 29.91 in1012.9 mb - 0.00 in0.0 mm 0.00 in0.0 mm
09:45 PM 75.1°F23.9°C 64.2°F17.9°C 69% 2.3 mph E3.7 kmh E 3.5 mph5.6 kmh 29.90 in1012.5 mb - 0.00 in0.0 mm 0.00 in0.0 mm
09:50 PM 75.0°F23.9°C 64.5°F18.1°C 70% 1.2 mph E1.9 kmh E 2.3 mph3.7 kmh 29.90 in1012.5 mb - 0.00 in0.0 mm 0.00 in0.0 mm
09:55 PM 74.9°F23.8°C 64.4°F18.0°C 70% 1.2 mph E1.9 kmh E 3.5 mph5.6 kmh 29.90 in1012.5 mb - 0.00 in0.0 mm 0.00 in0.0 mm
10:00 PM 74.8°F23.8°C 64.4°F18.0°C 70% 1.2 mph E1.9 kmh E 2.3 mph3.7 kmh 29.90 in1012.5 mb - 0.00 in0.0 mm 0.00 in0.0 mm
10:05 PM 74.6°F23.7°C 64.2°F17.9°C 70% 2.3 mph E3.7 kmh E 2.3 mph3.7 kmh 29.90 in1012.5 mb - 0.00 in0.0 mm 0.00 in0.0 mm
10:10 PM 74.5°F23.6°C 64.5°F18.1°C 71% 1.2 mph E1.9 kmh E 2.3 mph3.7 kmh 29.90 in1012.5 mb - 0.00 in0.0 mm 0.00 in0.0 mm
10:15 PM 74.4°F23.6°C 64.3°F17.9°C 71% 2.3 mph E3.7 kmh E 3.5 mph5.6 kmh 29.90 in1012.5 mb - 0.00 in0.0 mm 0.00 in0.0 mm
10:20 PM 74.2°F23.4°C 64.2°F17.9°C 71% 3.5 mph N5.6 kmh N 3.5 mph5.6 kmh 29.91 in1012.9 mb - 0.00 in0.0 mm 0.00 in0.0 mm
10:25 PM 74.0°F23.3°C 64.4°F18.0°C 72% 3.5 mph N5.6 kmh N 3.5 mph5.6 kmh 29.91 in1012.9 mb - 0.00 in0.0 mm 0.00 in0.0 mm
10:30 PM 73.8°F23.2°C 64.2°F17.9°C 72% 3.5 mph N5.6 kmh N 4.6 mph7.4 kmh 29.91 in1012.9 mb - 0.00 in0.0 mm 0.00 in0.0 mm
10:35 PM 73.5°F23.1°C 64.3°F17.9°C 73% 2.3 mph N3.7 kmh N 3.5 mph5.6 kmh 29.91 in1012.9 mb - 0.00 in0.0 mm 0.00 in0.0 mm
10:40 PM 73.3°F22.9°C 64.1°F17.8°C 73% 2.3 mph NNE3.7 kmh NNE 3.5 mph5.6 kmh 29.91 in1012.9 mb - 0.00 in0.0 mm 0.00 in0.0 mm
10:45 PM 73.1°F22.8°C 64.3°F17.9°C 74% 1.2 mph NNE1.9 kmh NNE 3.5 mph5.6 kmh 29.91 in1012.9 mb - 0.00 in0.0 mm 0.00 in0.0 mm
10:50 PM 72.9°F22.7°C 64.1°F17.8°C 74% 2.3 mph N3.7 kmh N 3.5 mph5.6 kmh 29.91 in1012.9 mb - 0.00 in0.0 mm 0.00 in0.0 mm
10:55 PM 72.8°F22.7°C 64.0°F17.8°C 74% 3.5 mph N5.6 kmh N 3.5 mph5.6 kmh 29.91 in1012.9 mb - 0.00 in0.0 mm 0.00 in0.0 mm
11:00 PM 72.6°F22.6°C 63.8°F17.7°C 74% 2.3 mph N3.7 kmh N 3.5 mph5.6 kmh 29.91 in1012.9 mb - 0.00 in0.0 mm 0.00 in0.0 mm
11:05 PM 72.4°F22.4°C 64.0°F17.8°C 75% 3.5 mph N5.6 kmh N 3.5 mph5.6 kmh 29.91 in1012.9 mb - 0.00 in0.0 mm 0.00 in0.0 mm
11:10 PM 72.3°F22.4°C 63.9°F17.7°C 75% 2.3 mph N3.7 kmh N 3.5 mph5.6 kmh 29.91 in1012.9 mb - 0.00 in0.0 mm 0.00 in0.0 mm
11:15 PM 72.1°F22.3°C 63.7°F17.6°C 75% 2.3 mph NNW3.7 kmh NNW 3.5 mph5.6 kmh 29.91 in1012.9 mb - 0.00 in0.0 mm 0.00 in0.0 mm
11:20 PM 72.0°F22.2°C 63.6°F17.6°C 75% 2.3 mph NNW3.7 kmh NNW 3.5 mph5.6 kmh 29.91 in1012.9 mb - 0.00 in0.0 mm 0.00 in0.0 mm
11:25 PM 71.9°F22.2°C 63.5°F17.5°C 75% 2.3 mph N3.7 kmh N 2.3 mph3.7 kmh 29.91 in1012.9 mb - 0.00 in0.0 mm 0.00 in0.0 mm
11:35 PM 71.7°F22.1°C 63.7°F17.6°C 76% 2.3 mph N3.7 kmh N 3.5 mph5.6 kmh 29.91 in1012.9 mb - 0.00 in0.0 mm 0.00 in0.0 mm
11:40 PM 71.7°F22.1°C 63.7°F17.6°C 76% 2.3 mph N3.7 kmh N 3.5 mph5.6 kmh 29.91 in1012.9 mb - 0.00 in0.0 mm 0.00 in0.0 mm
11:45 PM 71.7°F22.1°C 63.7°F17.6°C 76% 2.3 mph N3.7 kmh N 3.5 mph5.6 kmh 29.90 in1012.5 mb - 0.00 in0.0 mm 0.00 in0.0 mm
11:50 PM 71.7°F22.1°C 63.7°F17.6°C 76% 2.3 mph N3.7 kmh N 3.5 mph5.6 kmh 29.90 in1012.5 mb - 0.00 in0.0 mm 0.00 in0.0 mm
11:55 PM 71.7°F22.1°C 63.7°F17.6°C 76% 1.2 mph N1.9 kmh N 2.3 mph3.7 kmh 29.90 in1012.5 mb - 0.00 in0.0 mm 0.00 in0.0 mm